sensor_id;sensor_type;location;lat;lon;timestamp;P1;durP1;ratioP1;P2;durP2;ratioP2
32824;SDS011;51060;42.640;24.356;2022-08-21T00:00:28;5.88;;;3.53;;
32824;SDS011;51060;42.640;24.356;2022-08-21T00:03:00;6.40;;;3.50;;
32824;SDS011;51060;42.640;24.356;2022-08-21T00:05:27;7.40;;;3.63;;
32824;SDS011;51060;42.640;24.356;2022-08-21T00:07:53;5.57;;;3.20;;
32824;SDS011;51060;42.640;24.356;2022-08-21T00:10:19;5.55;;;3.42;;
32824;SDS011;51060;42.640;24.356;2022-08-21T00:12:45;7.50;;;3.28;;
32824;SDS011;51060;42.640;24.356;2022-08-21T00:15:15;8.55;;;4.20;;
32824;SDS011;51060;42.640;24.356;2022-08-21T00:17:43;7.70;;;4.47;;
32824;SDS011;51060;42.640;24.356;2022-08-21T00:20:09;8.93;;;5.28;;
32824;SDS011;51060;42.640;24.356;2022-08-21T00:22:36;9.38;;;5.30;;
32824;SDS011;51060;42.640;24.356;2022-08-21T00:25:03;7.07;;;4.20;;
32824;SDS011;51060;42.640;24.356;2022-08-21T00:27:30;7.10;;;4.20;;
32824;SDS011;51060;42.640;24.356;2022-08-21T00:29:56;10.70;;;4.38;;
32824;SDS011;51060;42.640;24.356;2022-08-21T00:32:23;5.85;;;3.88;;
32824;SDS011;51060;42.640;24.356;2022-08-21T00:34:50;11.35;;;4.22;;
32824;SDS011;51060;42.640;24.356;2022-08-21T00:37:16;6.15;;;4.20;;
32824;SDS011;51060;42.640;24.356;2022-08-21T00:39:41;6.43;;;3.88;;
32824;SDS011;51060;42.640;24.356;2022-08-21T00:42:08;7.88;;;4.05;;
32824;SDS011;51060;42.640;24.356;2022-08-21T00:44:34;9.25;;;3.88;;
32824;SDS011;51060;42.640;24.356;2022-08-21T00:47:00;8.15;;;3.83;;
32824;SDS011;51060;42.640;24.356;2022-08-21T00:49:26;8.88;;;3.90;;
32824;SDS011;51060;42.640;24.356;2022-08-21T00:51:55;9.25;;;3.47;;
32824;SDS011;51060;42.640;24.356;2022-08-21T00:54:24;8.80;;;4.03;;
32824;SDS011;51060;42.640;24.356;2022-08-21T00:56:52;6.72;;;3.50;;
32824;SDS011;51060;42.640;24.356;2022-08-21T00:59:20;7.22;;;4.05;;
32824;SDS011;51060;42.640;24.356;2022-08-21T01:01:47;7.50;;;3.75;;
32824;SDS011;51060;42.640;24.356;2022-08-21T01:04:13;7.25;;;4.30;;
32824;SDS011;51060;42.640;24.356;2022-08-21T01:06:39;7.72;;;3.90;;
32824;SDS011;51060;42.640;24.356;2022-08-21T01:09:05;7.45;;;3.83;;
32824;SDS011;51060;42.640;24.356;2022-08-21T01:11:31;8.63;;;3.97;;
32824;SDS011;51060;42.640;24.356;2022-08-21T01:13:56;7.45;;;4.45;;
32824;SDS011;51060;42.640;24.356;2022-08-21T01:16:23;8.45;;;4.80;;
32824;SDS011;51060;42.640;24.356;2022-08-21T01:18:49;9.65;;;4.35;;
32824;SDS011;51060;42.640;24.356;2022-08-21T01:21:16;12.23;;;4.20;;
32824;SDS011;51060;42.640;24.356;2022-08-21T01:23:49;10.88;;;4.38;;
32824;SDS011;51060;42.640;24.356;2022-08-21T01:26:18;7.80;;;4.25;;
32824;SDS011;51060;42.640;24.356;2022-08-21T01:28:52;7.28;;;3.92;;
32824;SDS011;51060;42.640;24.356;2022-08-21T01:31:23;10.02;;;4.70;;
32824;SDS011;51060;42.640;24.356;2022-08-21T01:33:50;8.70;;;5.03;;
32824;SDS011;51060;42.640;24.356;2022-08-21T01:36:16;9.50;;;4.45;;
32824;SDS011;51060;42.640;24.356;2022-08-21T01:38:41;9.75;;;5.07;;
32824;SDS011;51060;42.640;24.356;2022-08-21T01:41:07;9.15;;;5.05;;
32824;SDS011;51060;42.640;24.356;2022-08-21T01:43:33;8.23;;;4.80;;
32824;SDS011;51060;42.640;24.356;2022-08-21T01:45:58;7.22;;;4.40;;
32824;SDS011;51060;42.640;24.356;2022-08-21T01:48:24;10.05;;;5.18;;
32824;SDS011;51060;42.640;24.356;2022-08-21T01:50:49;10.38;;;5.18;;
32824;SDS011;51060;42.640;24.356;2022-08-21T01:53:15;8.90;;;4.55;;
32824;SDS011;51060;42.640;24.356;2022-08-21T01:55:42;11.13;;;4.80;;
32824;SDS011;51060;42.640;24.356;2022-08-21T01:58:08;8.48;;;4.90;;
32824;SDS011;51060;42.640;24.356;2022-08-21T02:00:34;11.63;;;5.30;;
32824;SDS011;51060;42.640;24.356;2022-08-21T02:02:59;9.43;;;5.35;;
32824;SDS011;51060;42.640;24.356;2022-08-21T02:05:25;8.10;;;4.70;;
32824;SDS011;51060;42.640;24.356;2022-08-21T02:07:51;7.75;;;5.03;;
32824;SDS011;51060;42.640;24.356;2022-08-21T02:10:22;10.40;;;5.10;;
32824;SDS011;51060;42.640;24.356;2022-08-21T02:12:49;9.88;;;5.03;;
32824;SDS011;51060;42.640;24.356;2022-08-21T02:15:15;10.48;;;4.93;;
32824;SDS011;51060;42.640;24.356;2022-08-21T02:17:42;8.77;;;4.57;;
32824;SDS011;51060;42.640;24.356;2022-08-21T02:20:18;7.68;;;4.95;;
32824;SDS011;51060;42.640;24.356;2022-08-21T02:22:47;10.38;;;4.97;;
32824;SDS011;51060;42.640;24.356;2022-08-21T02:25:13;10.25;;;4.70;;
32824;SDS011;51060;42.640;24.356;2022-08-21T02:27:39;9.20;;;4.57;;
32824;SDS011;51060;42.640;24.356;2022-08-21T02:30:07;8.10;;;4.15;;
32824;SDS011;51060;42.640;24.356;2022-08-21T02:32:34;8.77;;;4.50;;
32824;SDS011;51060;42.640;24.356;2022-08-21T02:35:00;7.20;;;4.38;;
32824;SDS011;51060;42.640;24.356;2022-08-21T02:37:26;8.65;;;4.75;;
32824;SDS011;51060;42.640;24.356;2022-08-21T02:39:51;9.13;;;4.70;;
32824;SDS011;51060;42.640;24.356;2022-08-21T02:42:17;8.80;;;4.10;;
32824;SDS011;51060;42.640;24.356;2022-08-21T02:44:42;7.40;;;4.90;;
32824;SDS011;51060;42.640;24.356;2022-08-21T02:47:08;8.60;;;4.63;;
32824;SDS011;51060;42.640;24.356;2022-08-21T02:49:34;7.43;;;4.85;;
32824;SDS011;51060;42.640;24.356;2022-08-21T02:51:59;9.85;;;5.68;;
32824;SDS011;51060;42.640;24.356;2022-08-21T02:54:25;8.88;;;5.82;;
32824;SDS011;51060;42.640;24.356;2022-08-21T02:56:50;12.27;;;6.25;;
32824;SDS011;51060;42.640;24.356;2022-08-21T02:59:16;11.45;;;6.28;;
32824;SDS011;51060;42.640;24.356;2022-08-21T03:01:42;10.65;;;5.65;;
32824;SDS011;51060;42.640;24.356;2022-08-21T03:04:07;9.80;;;5.50;;
32824;SDS011;51060;42.640;24.356;2022-08-21T03:06:33;8.93;;;5.50;;
32824;SDS011;51060;42.640;24.356;2022-08-21T03:08:59;9.05;;;4.57;;
32824;SDS011;51060;42.640;24.356;2022-08-21T03:11:24;13.07;;;4.78;;
32824;SDS011;51060;42.640;24.356;2022-08-21T03:13:51;9.50;;;4.53;;
32824;SDS011;51060;42.640;24.356;2022-08-21T03:16:17;7.15;;;4.97;;
32824;SDS011;51060;42.640;24.356;2022-08-21T03:18:44;9.05;;;5.43;;
32824;SDS011;51060;42.640;24.356;2022-08-21T03:21:10;11.23;;;6.30;;
32824;SDS011;51060;42.640;24.356;2022-08-21T03:23:36;9.00;;;5.55;;
32824;SDS011;51060;42.640;24.356;2022-08-21T03:26:02;8.90;;;6.30;;
32824;SDS011;51060;42.640;24.356;2022-08-21T03:28:28;11.13;;;6.05;;
32824;SDS011;51060;42.640;24.356;2022-08-21T03:30:53;10.23;;;6.22;;
32824;SDS011;51060;42.640;24.356;2022-08-21T03:33:19;12.10;;;5.80;;
32824;SDS011;51060;42.640;24.356;2022-08-21T03:35:46;8.95;;;5.75;;
32824;SDS011;51060;42.640;24.356;2022-08-21T03:38:22;9.57;;;5.88;;
32824;SDS011;51060;42.640;24.356;2022-08-21T03:40:48;11.43;;;7.15;;
32824;SDS011;51060;42.640;24.356;2022-08-21T03:43:14;9.32;;;5.88;;
32824;SDS011;51060;42.640;24.356;2022-08-21T03:45:39;10.25;;;6.53;;
32824;SDS011;51060;42.640;24.356;2022-08-21T03:48:05;10.88;;;6.57;;
32824;SDS011;51060;42.640;24.356;2022-08-21T03:50:33;11.35;;;7.18;;
32824;SDS011;51060;42.640;24.356;2022-08-21T03:53:01;11.80;;;6.90;;
32824;SDS011;51060;42.640;24.356;2022-08-21T03:55:27;11.55;;;6.45;;
32824;SDS011;51060;42.640;24.356;2022-08-21T03:57:52;11.68;;;6.25;;
32824;SDS011;51060;42.640;24.356;2022-08-21T04:00:19;10.43;;;5.93;;
32824;SDS011;51060;42.640;24.356;2022-08-21T04:02:45;7.95;;;6.32;;
32824;SDS011;51060;42.640;24.356;2022-08-21T04:05:12;8.95;;;6.15;;
32824;SDS011;51060;42.640;24.356;2022-08-21T04:07:39;7.15;;;5.25;;
32824;SDS011;51060;42.640;24.356;2022-08-21T04:10:05;10.02;;;5.32;;
32824;SDS011;51060;42.640;24.356;2022-08-21T04:12:31;6.93;;;5.20;;
32824;SDS011;51060;42.640;24.356;2022-08-21T04:14:57;9.13;;;5.85;;
32824;SDS011;51060;42.640;24.356;2022-08-21T04:17:23;9.90;;;5.97;;
32824;SDS011;51060;42.640;24.356;2022-08-21T04:19:48;11.05;;;6.40;;
32824;SDS011;51060;42.640;24.356;2022-08-21T04:22:14;10.50;;;6.25;;
32824;SDS011;51060;42.640;24.356;2022-08-21T04:24:40;10.05;;;5.75;;
32824;SDS011;51060;42.640;24.356;2022-08-21T04:27:06;12.10;;;5.53;;
32824;SDS011;51060;42.640;24.356;2022-08-21T04:29:32;8.80;;;4.85;;
32824;SDS011;51060;42.640;24.356;2022-08-21T04:31:57;8.73;;;4.65;;
32824;SDS011;51060;42.640;24.356;2022-08-21T04:34:23;8.45;;;4.18;;
32824;SDS011;51060;42.640;24.356;2022-08-21T04:36:48;8.20;;;4.47;;
32824;SDS011;51060;42.640;24.356;2022-08-21T04:39:14;9.43;;;5.03;;
32824;SDS011;51060;42.640;24.356;2022-08-21T04:41:39;13.98;;;9.95;;
32824;SDS011;51060;42.640;24.356;2022-08-21T04:44:06;15.60;;;9.57;;
32824;SDS011;51060;42.640;24.356;2022-08-21T04:46:32;16.45;;;10.23;;
32824;SDS011;51060;42.640;24.356;2022-08-21T04:48:57;11.75;;;8.00;;
32824;SDS011;51060;42.640;24.356;2022-08-21T04:51:30;13.77;;;9.68;;
32824;SDS011;51060;42.640;24.356;2022-08-21T04:53:59;11.82;;;8.20;;
32824;SDS011;51060;42.640;24.356;2022-08-21T04:56:29;17.50;;;11.15;;
32824;SDS011;51060;42.640;24.356;2022-08-21T04:58:58;19.85;;;12.98;;
32824;SDS011;51060;42.640;24.356;2022-08-21T05:01:27;13.73;;;8.02;;
32824;SDS011;51060;42.640;24.356;2022-08-21T05:03:54;14.80;;;10.32;;
32824;SDS011;51060;42.640;24.356;2022-08-21T05:06:22;10.05;;;6.15;;
32824;SDS011;51060;42.640;24.356;2022-08-21T05:08:48;10.15;;;6.25;;
32824;SDS011;51060;42.640;24.356;2022-08-21T05:11:16;13.55;;;7.45;;
32824;SDS011;51060;42.640;24.356;2022-08-21T05:13:41;8.80;;;6.97;;
32824;SDS011;51060;42.640;24.356;2022-08-21T05:16:07;11.10;;;7.22;;
32824;SDS011;51060;42.640;24.356;2022-08-21T05:18:33;11.63;;;7.13;;
32824;SDS011;51060;42.640;24.356;2022-08-21T05:20:59;10.45;;;5.22;;
32824;SDS011;51060;42.640;24.356;2022-08-21T05:23:24;10.93;;;5.43;;
32824;SDS011;51060;42.640;24.356;2022-08-21T05:25:50;9.00;;;4.20;;
32824;SDS011;51060;42.640;24.356;2022-08-21T05:28:17;8.73;;;4.30;;
32824;SDS011;51060;42.640;24.356;2022-08-21T05:30:43;10.00;;;4.18;;
32824;SDS011;51060;42.640;24.356;2022-08-21T05:33:09;10.30;;;3.88;;
32824;SDS011;51060;42.640;24.356;2022-08-21T05:35:35;9.10;;;4.60;;
32824;SDS011;51060;42.640;24.356;2022-08-21T05:38:01;6.82;;;4.03;;
32824;SDS011;51060;42.640;24.356;2022-08-21T05:40:27;6.82;;;4.00;;
32824;SDS011;51060;42.640;24.356;2022-08-21T05:42:53;9.45;;;4.57;;
32824;SDS011;51060;42.640;24.356;2022-08-21T05:45:21;10.18;;;6.18;;
32824;SDS011;51060;42.640;24.356;2022-08-21T05:47:51;14.68;;;9.57;;
32824;SDS011;51060;42.640;24.356;2022-08-21T05:50:16;10.98;;;7.72;;
32824;SDS011;51060;42.640;24.356;2022-08-21T05:52:42;10.10;;;6.20;;
32824;SDS011;51060;42.640;24.356;2022-08-21T05:55:07;13.65;;;9.73;;
32824;SDS011;51060;42.640;24.356;2022-08-21T05:57:33;12.18;;;8.63;;
32824;SDS011;51060;42.640;24.356;2022-08-21T05:59:59;11.60;;;7.25;;
32824;SDS011;51060;42.640;24.356;2022-08-21T06:02:24;12.40;;;9.60;;
32824;SDS011;51060;42.640;24.356;2022-08-21T06:04:50;12.48;;;8.15;;
32824;SDS011;51060;42.640;24.356;2022-08-21T06:07:15;12.40;;;8.25;;
32824;SDS011;51060;42.640;24.356;2022-08-21T06:09:41;11.00;;;7.07;;
32824;SDS011;51060;42.640;24.356;2022-08-21T06:12:08;9.60;;;6.25;;
32824;SDS011;51060;42.640;24.356;2022-08-21T06:14:35;7.78;;;5.47;;
32824;SDS011;51060;42.640;24.356;2022-08-21T06:17:02;10.35;;;5.68;;
32824;SDS011;51060;42.640;24.356;2022-08-21T06:19:32;12.20;;;6.82;;
32824;SDS011;51060;42.640;24.356;2022-08-21T06:21:57;14.35;;;9.35;;
32824;SDS011;51060;42.640;24.356;2022-08-21T06:24:23;25.27;;;18.65;;
32824;SDS011;51060;42.640;24.356;2022-08-21T06:26:49;22.88;;;14.60;;
32824;SDS011;51060;42.640;24.356;2022-08-21T06:29:15;23.77;;;14.82;;
32824;SDS011;51060;42.640;24.356;2022-08-21T06:31:45;18.67;;;10.85;;
32824;SDS011;51060;42.640;24.356;2022-08-21T06:34:11;16.63;;;11.23;;
32824;SDS011;51060;42.640;24.356;2022-08-21T06:36:38;14.73;;;10.07;;
32824;SDS011;51060;42.640;24.356;2022-08-21T06:39:03;12.98;;;8.05;;
32824;SDS011;51060;42.640;24.356;2022-08-21T06:41:29;17.02;;;9.88;;
32824;SDS011;51060;42.640;24.356;2022-08-21T06:43:55;12.10;;;7.68;;
32824;SDS011;51060;42.640;24.356;2022-08-21T06:46:21;13.85;;;7.88;;
32824;SDS011;51060;42.640;24.356;2022-08-21T06:48:48;11.00;;;4.95;;
32824;SDS011;51060;42.640;24.356;2022-08-21T06:51:14;10.93;;;5.47;;
32824;SDS011;51060;42.640;24.356;2022-08-21T06:53:40;9.98;;;5.22;;
32824;SDS011;51060;42.640;24.356;2022-08-21T06:56:05;8.30;;;5.43;;
32824;SDS011;51060;42.640;24.356;2022-08-21T06:58:31;10.98;;;6.28;;
32824;SDS011;51060;42.640;24.356;2022-08-21T07:00:57;9.88;;;5.88;;
32824;SDS011;51060;42.640;24.356;2022-08-21T07:03:25;7.85;;;5.38;;
32824;SDS011;51060;42.640;24.356;2022-08-21T07:05:53;12.07;;;7.43;;
32824;SDS011;51060;42.640;24.356;2022-08-21T07:08:19;14.68;;;9.35;;
32824;SDS011;51060;42.640;24.356;2022-08-21T07:10:46;13.38;;;9.25;;
32824;SDS011;51060;42.640;24.356;2022-08-21T07:13:12;18.08;;;10.27;;
32824;SDS011;51060;42.640;24.356;2022-08-21T07:15:38;13.82;;;9.40;;
32824;SDS011;51060;42.640;24.356;2022-08-21T07:18:04;15.90;;;8.57;;
32824;SDS011;51060;42.640;24.356;2022-08-21T07:20:30;10.77;;;8.25;;
32824;SDS011;51060;42.640;24.356;2022-08-21T07:22:57;12.50;;;8.68;;
32824;SDS011;51060;42.640;24.356;2022-08-21T07:25:25;14.80;;;10.13;;
32824;SDS011;51060;42.640;24.356;2022-08-21T07:27:51;11.93;;;8.85;;
32824;SDS011;51060;42.640;24.356;2022-08-21T07:30:16;11.65;;;8.73;;
32824;SDS011;51060;42.640;24.356;2022-08-21T07:32:42;11.10;;;8.25;;
32824;SDS011;51060;42.640;24.356;2022-08-21T07:35:07;12.70;;;8.60;;
32824;SDS011;51060;42.640;24.356;2022-08-21T07:37:33;10.32;;;7.22;;
32824;SDS011;51060;42.640;24.356;2022-08-21T07:39:59;11.00;;;8.60;;
32824;SDS011;51060;42.640;24.356;2022-08-21T07:42:24;14.52;;;8.60;;
32824;SDS011;51060;42.640;24.356;2022-08-21T07:44:50;16.65;;;11.77;;
32824;SDS011;51060;42.640;24.356;2022-08-21T07:47:15;12.77;;;9.15;;
32824;SDS011;51060;42.640;24.356;2022-08-21T07:49:41;12.35;;;8.48;;
32824;SDS011;51060;42.640;24.356;2022-08-21T07:52:06;11.60;;;7.03;;
32824;SDS011;51060;42.640;24.356;2022-08-21T07:54:32;10.98;;;6.95;;
32824;SDS011;51060;42.640;24.356;2022-08-21T07:56:58;8.63;;;5.68;;
32824;SDS011;51060;42.640;24.356;2022-08-21T07:59:23;9.60;;;6.72;;
32824;SDS011;51060;42.640;24.356;2022-08-21T08:01:49;12.30;;;6.68;;
32824;SDS011;51060;42.640;24.356;2022-08-21T08:04:14;10.25;;;5.95;;
32824;SDS011;51060;42.640;24.356;2022-08-21T08:06:40;10.02;;;6.20;;
32824;SDS011;51060;42.640;24.356;2022-08-21T08:09:06;11.68;;;6.28;;
32824;SDS011;51060;42.640;24.356;2022-08-21T08:11:32;11.07;;;6.97;;
32824;SDS011;51060;42.640;24.356;2022-08-21T08:13:58;8.38;;;5.80;;
32824;SDS011;51060;42.640;24.356;2022-08-21T08:16:24;10.77;;;5.72;;
32824;SDS011;51060;42.640;24.356;2022-08-21T08:18:50;7.13;;;5.93;;
32824;SDS011;51060;42.640;24.356;2022-08-21T08:21:16;8.80;;;6.28;;
32824;SDS011;51060;42.640;24.356;2022-08-21T08:23:44;10.23;;;6.15;;
32824;SDS011;51060;42.640;24.356;2022-08-21T08:26:10;10.15;;;6.80;;
32824;SDS011;51060;42.640;24.356;2022-08-21T08:28:36;10.52;;;5.65;;
32824;SDS011;51060;42.640;24.356;2022-08-21T08:31:01;10.35;;;5.70;;
32824;SDS011;51060;42.640;24.356;2022-08-21T08:33:27;8.63;;;6.07;;
32824;SDS011;51060;42.640;24.356;2022-08-21T08:35:53;9.13;;;5.95;;
32824;SDS011;51060;42.640;24.356;2022-08-21T08:38:20;7.85;;;5.60;;
32824;SDS011;51060;42.640;24.356;2022-08-21T08:41:00;9.25;;;5.95;;
32824;SDS011;51060;42.640;24.356;2022-08-21T08:43:29;8.93;;;5.90;;
32824;SDS011;51060;42.640;24.356;2022-08-21T08:45:56;7.75;;;5.40;;
32824;SDS011;51060;42.640;24.356;2022-08-21T08:48:36;8.88;;;5.15;;
32824;SDS011;51060;42.640;24.356;2022-08-21T08:51:08;7.10;;;5.65;;
32824;SDS011;51060;42.640;24.356;2022-08-21T08:54:01;8.63;;;5.82;;
32824;SDS011;51060;42.640;24.356;2022-08-21T08:56:29;7.07;;;5.18;;
32824;SDS011;51060;42.640;24.356;2022-08-21T08:58:59;6.90;;;5.15;;
32824;SDS011;51060;42.640;24.356;2022-08-21T09:01:46;8.88;;;6.07;;
32824;SDS011;51060;42.640;24.356;2022-08-21T09:04:12;6.95;;;4.60;;
32824;SDS011;51060;42.640;24.356;2022-08-21T09:16:05;5.50;;;4.50;;
32824;SDS011;51060;42.640;24.356;2022-08-21T09:20:54;7.45;;;4.70;;
32824;SDS011;51060;42.640;24.356;2022-08-21T09:26:27;5.57;;;3.90;;
32824;SDS011;51060;42.640;24.356;2022-08-21T09:28:58;5.30;;;4.22;;
32824;SDS011;51060;42.640;24.356;2022-08-21T09:31:32;8.38;;;4.35;;
32824;SDS011;51060;42.640;24.356;2022-08-21T09:34:00;5.95;;;3.80;;
32824;SDS011;51060;42.640;24.356;2022-08-21T09:37:00;5.55;;;4.13;;
32824;SDS011;51060;42.640;24.356;2022-08-21T09:39:26;4.93;;;3.10;;
32824;SDS011;51060;42.640;24.356;2022-08-21T09:41:56;6.18;;;3.25;;
32824;SDS011;51060;42.640;24.356;2022-08-21T09:44:27;4.03;;;2.80;;
32824;SDS011;51060;42.640;24.356;2022-08-21T09:46:53;5.05;;;2.80;;
32824;SDS011;51060;42.640;24.356;2022-08-21T09:49:29;3.08;;;2.60;;
32824;SDS011;51060;42.640;24.356;2022-08-21T09:51:57;4.60;;;2.88;;
32824;SDS011;51060;42.640;24.356;2022-08-21T09:54:31;3.38;;;2.58;;
32824;SDS011;51060;42.640;24.356;2022-08-21T09:57:00;2.58;;;2.20;;
32824;SDS011;51060;42.640;24.356;2022-08-21T09:59:51;5.05;;;2.00;;
32824;SDS011;51060;42.640;24.356;2022-08-21T10:02:30;3.42;;;2.30;;
32824;SDS011;51060;42.640;24.356;2022-08-21T10:04:58;3.47;;;1.92;;
32824;SDS011;51060;42.640;24.356;2022-08-21T10:07:29;3.58;;;2.17;;
32824;SDS011;51060;42.640;24.356;2022-08-21T10:10:03;4.43;;;2.00;;
32824;SDS011;51060;42.640;24.356;2022-08-21T10:18:25;3.03;;;2.10;;
32824;SDS011;51060;42.640;24.356;2022-08-21T10:30:17;2.28;;;2.05;;
32824;SDS011;51060;42.640;24.356;2022-08-21T10:41:37;5.70;;;3.72;;
32824;SDS011;51060;42.640;24.356;2022-08-21T10:44:35;4.30;;;3.20;;
32824;SDS011;51060;42.640;24.356;2022-08-21T10:50:31;3.58;;;2.92;;
32824;SDS011;51060;42.640;24.356;2022-08-21T10:55:12;4.10;;;3.08;;
32824;SDS011;51060;42.640;24.356;2022-08-21T10:58:05;4.47;;;2.72;;
32824;SDS011;51060;42.640;24.356;2022-08-21T11:00:35;3.55;;;2.47;;
32824;SDS011;51060;42.640;24.356;2022-08-21T11:06:00;4.53;;;3.35;;
32824;SDS011;51060;42.640;24.356;2022-08-21T11:08:35;5.22;;;2.67;;
32824;SDS011;51060;42.640;24.356;2022-08-21T11:11:17;3.45;;;2.63;;
32824;SDS011;51060;42.640;24.356;2022-08-21T11:13:47;2.63;;;1.83;;
32824;SDS011;51060;42.640;24.356;2022-08-21T11:18:53;4.10;;;2.50;;
32824;SDS011;51060;42.640;24.356;2022-08-21T11:30:05;4.22;;;2.20;;
32824;SDS011;51060;42.640;24.356;2022-08-21T11:40:33;2.67;;;1.80;;
32824;SDS011;51060;42.640;24.356;2022-08-21T11:46:23;2.53;;;1.85;;
32824;SDS011;51060;42.640;24.356;2022-08-21T11:49:21;2.90;;;2.10;;
32824;SDS011;51060;42.640;24.356;2022-08-21T11:54:41;3.38;;;2.50;;
32824;SDS011;51060;42.640;24.356;2022-08-21T11:57:25;3.10;;;2.60;;
32824;SDS011;51060;42.640;24.356;2022-08-21T12:00:00;2.60;;;2.40;;
32824;SDS011;51060;42.640;24.356;2022-08-21T12:02:36;2.83;;;2.05;;
32824;SDS011;51060;42.640;24.356;2022-08-21T12:05:05;3.25;;;2.28;;
32824;SDS011;51060;42.640;24.356;2022-08-21T12:07:40;4.10;;;3.33;;
32824;SDS011;51060;42.640;24.356;2022-08-21T12:10:12;2.58;;;2.38;;
32824;SDS011;51060;42.640;24.356;2022-08-21T12:12:42;2.90;;;2.50;;
32824;SDS011;51060;42.640;24.356;2022-08-21T12:17:40;3.42;;;2.45;;
32824;SDS011;51060;42.640;24.356;2022-08-21T12:22:53;3.00;;;2.70;;
32824;SDS011;51060;42.640;24.356;2022-08-21T12:25:44;3.45;;;2.88;;
32824;SDS011;51060;42.640;24.356;2022-08-21T12:28:26;3.97;;;3.10;;
32824;SDS011;51060;42.640;24.356;2022-08-21T12:30:52;5.78;;;3.88;;
32824;SDS011;51060;42.640;24.356;2022-08-21T12:35:43;6.15;;;3.72;;
32824;SDS011;51060;42.640;24.356;2022-08-21T12:38:12;5.90;;;3.42;;
32824;SDS011;51060;42.640;24.356;2022-08-21T12:40:42;5.72;;;3.92;;
32824;SDS011;51060;42.640;24.356;2022-08-21T12:43:18;7.80;;;4.18;;
32824;SDS011;51060;42.640;24.356;2022-08-21T12:45:47;5.82;;;4.43;;
32824;SDS011;51060;42.640;24.356;2022-08-21T12:48:17;6.93;;;4.70;;
32824;SDS011;51060;42.640;24.356;2022-08-21T12:50:49;7.57;;;5.03;;
32824;SDS011;51060;42.640;24.356;2022-08-21T12:53:30;7.13;;;5.00;;
32824;SDS011;51060;42.640;24.356;2022-08-21T12:56:01;9.82;;;5.78;;
32824;SDS011;51060;42.640;24.356;2022-08-21T12:58:28;7.00;;;5.15;;
32824;SDS011;51060;42.640;24.356;2022-08-21T13:01:01;6.50;;;5.07;;
32824;SDS011;51060;42.640;24.356;2022-08-21T13:03:29;8.10;;;5.10;;
32824;SDS011;51060;42.640;24.356;2022-08-21T13:05:56;8.98;;;5.45;;
32824;SDS011;51060;42.640;24.356;2022-08-21T13:08:23;8.30;;;5.18;;
32824;SDS011;51060;42.640;24.356;2022-08-21T13:10:55;6.80;;;5.30;;
32824;SDS011;51060;42.640;24.356;2022-08-21T13:13:24;8.43;;;5.15;;
32824;SDS011;51060;42.640;24.356;2022-08-21T13:15:55;6.07;;;5.35;;
32824;SDS011;51060;42.640;24.356;2022-08-21T13:18:26;8.43;;;5.93;;
32824;SDS011;51060;42.640;24.356;2022-08-21T13:21:02;8.50;;;5.78;;
32824;SDS011;51060;42.640;24.356;2022-08-21T13:23:30;7.57;;;6.25;;
32824;SDS011;51060;42.640;24.356;2022-08-21T13:25:56;10.40;;;6.57;;
32824;SDS011;51060;42.640;24.356;2022-08-21T13:28:22;9.52;;;6.88;;
32824;SDS011;51060;42.640;24.356;2022-08-21T13:30:49;9.55;;;6.38;;
32824;SDS011;51060;42.640;24.356;2022-08-21T13:33:17;10.93;;;6.55;;
32824;SDS011;51060;42.640;24.356;2022-08-21T13:38:15;10.55;;;6.43;;
32824;SDS011;51060;42.640;24.356;2022-08-21T13:40:49;8.93;;;6.35;;
32824;SDS011;51060;42.640;24.356;2022-08-21T13:43:30;7.97;;;5.90;;
32824;SDS011;51060;42.640;24.356;2022-08-21T13:45:57;10.90;;;6.47;;
32824;SDS011;51060;42.640;24.356;2022-08-21T13:48:25;11.02;;;6.57;;
32824;SDS011;51060;42.640;24.356;2022-08-21T13:50:51;8.05;;;5.80;;
32824;SDS011;51060;42.640;24.356;2022-08-21T13:56:20;7.97;;;5.70;;
32824;SDS011;51060;42.640;24.356;2022-08-21T13:59:04;7.63;;;5.93;;
32824;SDS011;51060;42.640;24.356;2022-08-21T14:01:34;6.45;;;5.22;;
32824;SDS011;51060;42.640;24.356;2022-08-21T14:04:20;6.07;;;5.13;;
32824;SDS011;51060;42.640;24.356;2022-08-21T14:06:47;10.50;;;5.57;;
32824;SDS011;51060;42.640;24.356;2022-08-21T14:09:20;8.73;;;5.78;;
32824;SDS011;51060;42.640;24.356;2022-08-21T14:11:54;6.57;;;5.78;;
32824;SDS011;51060;42.640;24.356;2022-08-21T14:14:28;6.60;;;5.93;;
32824;SDS011;51060;42.640;24.356;2022-08-21T14:17:00;7.53;;;5.78;;
32824;SDS011;51060;42.640;24.356;2022-08-21T14:19:44;7.05;;;6.28;;
32824;SDS011;51060;42.640;24.356;2022-08-21T14:22:21;7.45;;;6.10;;
32824;SDS011;51060;42.640;24.356;2022-08-21T14:25:11;7.78;;;6.40;;
32824;SDS011;51060;42.640;24.356;2022-08-21T14:30:31;8.35;;;6.60;;
32824;SDS011;51060;42.640;24.356;2022-08-21T14:32:58;8.05;;;6.13;;
32824;SDS011;51060;42.640;24.356;2022-08-21T14:35:25;6.95;;;5.70;;
32824;SDS011;51060;42.640;24.356;2022-08-21T14:37:51;8.35;;;5.53;;
32824;SDS011;51060;42.640;24.356;2022-08-21T14:40:17;7.30;;;6.30;;
32824;SDS011;51060;42.640;24.356;2022-08-21T14:42:43;7.82;;;6.00;;
32824;SDS011;51060;42.640;24.356;2022-08-21T14:45:14;7.47;;;6.10;;
32824;SDS011;51060;42.640;24.356;2022-08-21T14:47:42;6.40;;;5.68;;
32824;SDS011;51060;42.640;24.356;2022-08-21T14:50:09;9.05;;;6.43;;
32824;SDS011;51060;42.640;24.356;2022-08-21T14:52:35;8.93;;;7.05;;
32824;SDS011;51060;42.640;24.356;2022-08-21T14:55:02;10.82;;;6.55;;
32824;SDS011;51060;42.640;24.356;2022-08-21T14:57:29;8.93;;;6.78;;
32824;SDS011;51060;42.640;24.356;2022-08-21T14:59:55;8.05;;;6.13;;
32824;SDS011;51060;42.640;24.356;2022-08-21T15:02:21;7.18;;;6.03;;
32824;SDS011;51060;42.640;24.356;2022-08-21T15:04:46;6.45;;;5.82;;
32824;SDS011;51060;42.640;24.356;2022-08-21T15:07:12;7.28;;;6.43;;
32824;SDS011;51060;42.640;24.356;2022-08-21T15:09:37;6.95;;;6.25;;
32824;SDS011;51060;42.640;24.356;2022-08-21T15:12:03;8.73;;;6.30;;
32824;SDS011;51060;42.640;24.356;2022-08-21T15:14:30;7.88;;;6.28;;
32824;SDS011;51060;42.640;24.356;2022-08-21T15:16:58;8.43;;;6.50;;
32824;SDS011;51060;42.640;24.356;2022-08-21T15:19:24;8.60;;;6.38;;
32824;SDS011;51060;42.640;24.356;2022-08-21T15:21:50;7.70;;;6.47;;
32824;SDS011;51060;42.640;24.356;2022-08-21T15:24:15;10.63;;;6.63;;
32824;SDS011;51060;42.640;24.356;2022-08-21T15:26:41;9.95;;;6.80;;
32824;SDS011;51060;42.640;24.356;2022-08-21T15:29:08;7.07;;;6.03;;
32824;SDS011;51060;42.640;24.356;2022-08-21T15:31:34;9.68;;;6.50;;
32824;SDS011;51060;42.640;24.356;2022-08-21T15:34:00;9.38;;;6.78;;
32824;SDS011;51060;42.640;24.356;2022-08-21T15:36:25;8.23;;;6.57;;
32824;SDS011;51060;42.640;24.356;2022-08-21T15:38:51;10.38;;;6.43;;
32824;SDS011;51060;42.640;24.356;2022-08-21T15:41:17;10.77;;;7.10;;
32824;SDS011;51060;42.640;24.356;2022-08-21T15:43:47;8.32;;;6.85;;
32824;SDS011;51060;42.640;24.356;2022-08-21T15:46:14;8.85;;;7.18;;
32824;SDS011;51060;42.640;24.356;2022-08-21T15:48:41;9.63;;;6.35;;
32824;SDS011;51060;42.640;24.356;2022-08-21T15:51:08;6.75;;;6.03;;
32824;SDS011;51060;42.640;24.356;2022-08-21T15:53:35;11.93;;;7.28;;
32824;SDS011;51060;42.640;24.356;2022-08-21T15:56:04;8.35;;;6.25;;
32824;SDS011;51060;42.640;24.356;2022-08-21T15:58:30;8.27;;;6.13;;
32824;SDS011;51060;42.640;24.356;2022-08-21T16:00:58;9.40;;;6.80;;
32824;SDS011;51060;42.640;24.356;2022-08-21T16:03:24;7.68;;;6.45;;